createdAt,value
2022-11-13T00:00:35.337Z,4.57
2022-11-13T00:01:56.409Z,4.51
2022-11-13T00:03:16.983Z,4.50
2022-11-13T00:04:37.532Z,4.54
2022-11-13T00:05:59.958Z,4.61
2022-11-13T00:07:20.953Z,4.73
2022-11-13T00:08:41.700Z,4.66
2022-11-13T00:10:02.288Z,4.61
2022-11-13T00:11:23.017Z,4.61
2022-11-13T00:12:43.709Z,4.67
2022-11-13T00:14:05.098Z,4.42
2022-11-13T00:15:25.960Z,4.47
2022-11-13T00:16:46.796Z,4.55
2022-11-13T00:18:07.397Z,4.48
2022-11-13T00:19:27.977Z,4.31
2022-11-13T00:20:48.730Z,4.22
2022-11-13T00:22:09.785Z,4.10
2022-11-13T00:23:34.599Z,4.06
2022-11-13T00:24:55.242Z,4.22
2022-11-13T00:26:18.360Z,4.26
2022-11-13T00:27:38.931Z,4.09
2022-11-13T00:29:01.991Z,3.99
2022-11-13T00:30:22.534Z,4.02
2022-11-13T00:31:43.096Z,4.00
2022-11-13T00:33:03.674Z,4.15
2022-11-13T00:34:46.321Z,4.10
2022-11-13T00:36:14.893Z,4.14
2022-11-13T00:37:35.625Z,4.11
2022-11-13T00:38:56.549Z,4.03
2022-11-13T00:40:17.276Z,4.12
2022-11-13T00:41:37.843Z,4.18
2022-11-13T00:42:58.647Z,4.21
2022-11-13T00:44:19.364Z,4.08
2022-11-13T00:45:40.123Z,3.98
2022-11-13T00:47:00.988Z,3.86
2022-11-13T00:48:21.609Z,3.78
2022-11-13T00:49:42.234Z,3.72
2022-11-13T00:51:03.739Z,3.79
2022-11-13T00:52:24.636Z,3.81
2022-11-13T00:53:45.242Z,3.96
2022-11-13T00:55:06.326Z,3.99
2022-11-13T00:56:27.171Z,3.98
2022-11-13T00:57:48.029Z,3.94
2022-11-13T00:59:09.020Z,3.93
2022-11-13T01:00:29.665Z,3.89
2022-11-13T01:01:50.531Z,3.94
2022-11-13T01:03:12.161Z,4.00
2022-11-13T01:04:32.706Z,4.02
2022-11-13T01:05:53.729Z,4.04
2022-11-13T01:07:14.311Z,4.01
2022-11-13T01:08:34.958Z,3.99
2022-11-13T01:09:55.644Z,4.02
2022-11-13T01:11:22.029Z,4.03
2022-11-13T01:12:43.314Z,4.05
2022-11-13T01:14:04.344Z,4.02
2022-11-13T01:15:25.248Z,3.99
2022-11-13T01:16:46.031Z,4.02
2022-11-13T01:18:06.908Z,3.90
2022-11-13T01:19:27.940Z,3.91
2022-11-13T01:20:48.666Z,3.92
2022-11-13T01:22:09.637Z,3.82
2022-11-13T01:23:30.212Z,3.82
2022-11-13T01:24:51.422Z,3.90
2022-11-13T01:26:16.867Z,4.00
2022-11-13T01:27:38.132Z,3.96
2022-11-13T01:28:59.917Z,3.91
2022-11-13T01:30:20.749Z,4.00
2022-11-13T01:31:41.361Z,4.20
2022-11-13T01:33:02.328Z,4.14
2022-11-13T01:34:23.029Z,4.10
2022-11-13T01:35:43.979Z,4.13
2022-11-13T01:37:04.606Z,4.03
2022-11-13T01:38:25.455Z,3.94
2022-11-13T01:39:46.443Z,3.95
2022-11-13T01:41:10.993Z,3.97
2022-11-13T01:42:34.532Z,4.09
2022-11-13T01:43:56.876Z,4.10
2022-11-13T01:45:51.767Z,4.05
2022-11-13T01:47:12.619Z,3.94
2022-11-13T01:48:40.224Z,3.88
2022-11-13T01:50:02.268Z,4.05
2022-11-13T01:51:29.633Z,3.95
2022-11-13T01:52:50.642Z,3.96
2022-11-13T01:54:17.276Z,4.01
2022-11-13T01:55:37.962Z,3.97
2022-11-13T01:56:59.883Z,3.80
2022-11-13T01:58:21.137Z,3.86
2022-11-13T01:59:47.101Z,3.78
2022-11-13T02:01:42.050Z,3.47
2022-11-13T02:03:03.445Z,3.44
2022-11-13T02:04:25.472Z,3.57
2022-11-13T02:05:46.201Z,3.57
2022-11-13T02:07:10.106Z,3.67
2022-11-13T02:08:30.911Z,3.62
2022-11-13T02:09:55.341Z,3.65
2022-11-13T02:11:16.841Z,3.67
2022-11-13T02:12:42.000Z,3.65
2022-11-13T02:14:03.955Z,3.70
2022-11-13T02:15:28.895Z,3.66
2022-11-13T02:16:54.323Z,3.79
2022-11-13T02:18:16.868Z,3.74
2022-11-13T02:19:42.975Z,3.78
2022-11-13T02:21:43.409Z,3.65
2022-11-13T02:23:22.518Z,3.66
2022-11-13T02:24:47.896Z,3.67
2022-11-13T02:26:11.867Z,3.70
2022-11-13T02:27:44.208Z,3.80
2022-11-13T02:29:04.785Z,3.67
2022-11-13T02:30:29.068Z,3.69
2022-11-13T02:31:50.040Z,3.50
2022-11-13T02:33:22.560Z,3.50
2022-11-13T02:34:43.170Z,3.53
2022-11-13T02:36:05.774Z,3.57
2022-11-13T02:37:26.638Z,3.68
2022-11-13T02:38:48.086Z,3.71
2022-11-13T02:40:09.948Z,3.72
2022-11-13T02:41:30.786Z,3.67
2022-11-13T02:42:51.330Z,3.76
2022-11-13T02:44:12.179Z,3.82
2022-11-13T02:45:33.228Z,3.77
2022-11-13T02:46:54.123Z,3.78
2022-11-13T02:48:14.802Z,3.71
2022-11-13T02:49:35.473Z,3.73
2022-11-13T02:50:56.080Z,3.80
2022-11-13T02:52:16.854Z,3.78
2022-11-13T02:53:37.533Z,3.72
2022-11-13T02:54:58.599Z,3.74
2022-11-13T02:56:19.236Z,3.71
2022-11-13T02:57:40.330Z,3.77
2022-11-13T02:59:00.830Z,3.73
2022-11-13T03:00:21.672Z,3.73
2022-11-13T03:01:42.445Z,3.79
2022-11-13T03:03:03.277Z,3.82
2022-11-13T03:04:24.081Z,3.84
2022-11-13T03:05:49.766Z,3.87
2022-11-13T03:07:10.915Z,3.82
2022-11-13T03:08:32.587Z,3.91
2022-11-13T03:09:53.928Z,3.87
2022-11-13T03:11:14.334Z,3.91
2022-11-13T03:12:35.524Z,3.87
2022-11-13T03:13:56.598Z,3.94
2022-11-13T03:15:17.277Z,3.98
2022-11-13T03:16:38.423Z,3.94
2022-11-13T03:18:05.980Z,3.94
2022-11-13T03:19:27.483Z,3.94
2022-11-13T03:20:53.786Z,3.94
2022-11-13T03:22:14.527Z,4.00
2022-11-13T03:23:35.270Z,4.00
2022-11-13T03:24:55.979Z,4.01
2022-11-13T03:26:17.671Z,3.97
2022-11-13T03:27:38.242Z,4.04
2022-11-13T03:28:58.806Z,4.10
2022-11-13T03:30:19.868Z,4.01
2022-11-13T03:31:40.838Z,4.03
2022-11-13T03:33:01.373Z,3.97
2022-11-13T03:34:22.204Z,3.87
2022-11-13T03:35:46.711Z,3.84
2022-11-13T03:37:07.892Z,3.93
2022-11-13T03:38:28.939Z,3.88
2022-11-13T03:39:49.832Z,3.86
2022-11-13T03:41:10.499Z,4.01
2022-11-13T03:42:31.473Z,4.07
2022-11-13T03:43:52.418Z,4.01
2022-11-13T03:45:13.110Z,4.13
2022-11-13T03:46:33.752Z,4.17
2022-11-13T03:47:54.595Z,4.07
2022-11-13T03:49:15.307Z,3.98
2022-11-13T03:50:35.976Z,4.15
2022-11-13T03:51:56.568Z,3.90
2022-11-13T03:53:17.258Z,3.82
2022-11-13T03:54:38.105Z,4.01
2022-11-13T03:55:59.019Z,4.01
2022-11-13T03:57:19.990Z,4.05
2022-11-13T03:58:40.819Z,4.14
2022-11-13T04:00:07.238Z,3.92
2022-11-13T04:01:27.826Z,3.92
2022-11-13T04:02:48.450Z,3.97
2022-11-13T04:04:09.197Z,4.08
2022-11-13T04:05:29.929Z,4.09
2022-11-13T04:06:50.613Z,4.20
2022-11-13T04:08:11.368Z,4.34
2022-11-13T04:09:32.047Z,4.34
2022-11-13T04:10:52.657Z,4.22
2022-11-13T04:12:13.553Z,4.20
2022-11-13T04:13:34.470Z,4.18
2022-11-13T04:14:55.051Z,4.19
2022-11-13T04:16:15.921Z,4.19
2022-11-13T04:17:40.242Z,4.19
2022-11-13T04:19:00.927Z,4.22
2022-11-13T04:20:21.805Z,4.22
2022-11-13T04:21:42.542Z,4.08
2022-11-13T04:23:07.767Z,3.99
2022-11-13T04:24:28.265Z,4.01
2022-11-13T04:25:49.031Z,4.11
2022-11-13T04:27:09.942Z,4.07
2022-11-13T04:28:30.828Z,4.04
2022-11-13T04:29:51.663Z,4.06
2022-11-13T04:31:12.232Z,4.09
2022-11-13T04:32:33.415Z,4.13
2022-11-13T04:33:54.192Z,4.04
2022-11-13T04:35:15.099Z,4.03
2022-11-13T04:36:35.978Z,4.25
2022-11-13T04:37:56.851Z,4.36
2022-11-13T04:39:17.479Z,4.39
2022-11-13T04:40:39.462Z,4.33
2022-11-13T04:42:19.333Z,4.07
2022-11-13T04:43:40.164Z,4.01
2022-11-13T04:45:00.650Z,3.99
2022-11-13T04:46:21.366Z,4.02
2022-11-13T04:47:42.332Z,4.05
2022-11-13T04:49:02.883Z,3.87
2022-11-13T04:50:23.832Z,3.81
2022-11-13T04:51:44.652Z,3.88
2022-11-13T04:53:05.469Z,3.93
2022-11-13T04:54:28.898Z,3.98
2022-11-13T04:55:52.582Z,3.91
2022-11-13T04:57:13.060Z,3.92
2022-11-13T04:58:33.696Z,3.93
2022-11-13T04:59:54.358Z,4.02
2022-11-13T05:01:15.403Z,3.92
2022-11-13T05:02:36.116Z,3.78
2022-11-13T05:03:56.874Z,3.88
2022-11-13T05:05:17.543Z,3.88
2022-11-13T05:06:38.216Z,3.82
2022-11-13T05:07:58.867Z,3.89
2022-11-13T05:09:19.583Z,3.81
2022-11-13T05:10:40.220Z,3.95
2022-11-13T05:12:00.852Z,3.86
2022-11-13T05:13:21.765Z,3.80
2022-11-13T05:14:42.776Z,3.84
2022-11-13T05:16:05.907Z,3.87
2022-11-13T05:17:26.923Z,4.07
2022-11-13T05:18:47.780Z,4.14
2022-11-13T05:20:08.910Z,4.08
2022-11-13T05:21:29.822Z,3.98
2022-11-13T05:22:50.507Z,3.96
2022-11-13T05:24:11.863Z,3.95
2022-11-13T05:25:32.826Z,3.99
2022-11-13T05:26:53.374Z,4.07
2022-11-13T05:28:14.089Z,4.04
2022-11-13T05:29:34.718Z,4.02
2022-11-13T05:31:07.980Z,3.95
2022-11-13T05:32:28.705Z,3.90
2022-11-13T05:33:49.558Z,3.84
2022-11-13T05:35:10.495Z,4.01
2022-11-13T05:36:31.540Z,3.93
2022-11-13T05:37:52.478Z,3.63
2022-11-13T05:39:13.035Z,3.61
2022-11-13T05:40:33.812Z,3.63
2022-11-13T05:41:54.493Z,3.51
2022-11-13T05:43:15.492Z,3.51
2022-11-13T05:44:36.466Z,3.53
2022-11-13T05:46:21.673Z,3.63
2022-11-13T05:47:42.533Z,3.58
2022-11-13T05:49:03.614Z,3.64
2022-11-13T05:50:24.545Z,3.54
2022-11-13T05:51:45.457Z,3.72
2022-11-13T05:53:06.067Z,3.62
2022-11-13T05:54:26.791Z,3.60
2022-11-13T05:55:47.331Z,3.62
2022-11-13T05:57:07.866Z,3.64
2022-11-13T05:58:29.418Z,3.52
2022-11-13T05:59:50.210Z,3.43
2022-11-13T06:01:22.118Z,3.49
2022-11-13T06:02:42.739Z,3.41
2022-11-13T06:04:05.198Z,3.36
2022-11-13T06:05:25.731Z,3.38
2022-11-13T06:06:46.746Z,3.35
2022-11-13T06:08:07.341Z,3.47
2022-11-13T06:09:28.117Z,3.35
2022-11-13T06:10:48.756Z,3.25
2022-11-13T06:12:09.370Z,3.19
2022-11-13T06:13:30.844Z,3.09
2022-11-13T06:14:51.694Z,3.20
2022-11-13T06:16:14.758Z,3.00
2022-11-13T06:17:35.904Z,3.05
2022-11-13T06:18:59.624Z,2.93
2022-11-13T06:20:20.073Z,3.05
2022-11-13T06:21:41.615Z,3.11
2022-11-13T06:23:02.897Z,3.22
2022-11-13T06:24:23.917Z,3.14
2022-11-13T06:25:44.425Z,3.14
2022-11-13T06:27:05.074Z,3.27
2022-11-13T06:28:26.126Z,3.30
2022-11-13T06:29:47.106Z,3.38
2022-11-13T06:31:10.480Z,3.41
2022-11-13T06:32:31.219Z,3.62
2022-11-13T06:33:52.040Z,3.45
2022-11-13T06:35:12.877Z,3.45
2022-11-13T06:36:36.683Z,3.31
2022-11-13T06:37:57.339Z,3.34
2022-11-13T06:39:17.831Z,3.32
2022-11-13T06:40:39.414Z,3.21
2022-11-13T06:42:00.005Z,3.27
2022-11-13T06:43:20.894Z,3.34
2022-11-13T06:44:41.579Z,3.33
2022-11-13T06:46:11.436Z,3.47
2022-11-13T06:47:32.196Z,3.55
2022-11-13T06:48:55.561Z,3.64
2022-11-13T06:50:16.242Z,3.65
2022-11-13T06:51:37.481Z,3.59
2022-11-13T06:52:58.212Z,3.55
2022-11-13T06:54:18.927Z,3.42
2022-11-13T06:55:50.350Z,3.50
2022-11-13T06:57:11.277Z,3.44
2022-11-13T06:58:33.129Z,3.34
2022-11-13T06:59:53.657Z,3.29
2022-11-13T07:01:20.053Z,3.38
2022-11-13T07:02:41.186Z,3.40
2022-11-13T07:04:02.089Z,3.31
2022-11-13T07:05:22.941Z,3.27
2022-11-13T07:06:43.955Z,3.25
2022-11-13T07:08:05.279Z,3.20
2022-11-13T07:09:26.008Z,3.21
2022-11-13T07:10:54.817Z,3.14
2022-11-13T07:12:15.423Z,3.32
2022-11-13T07:13:37.550Z,3.39
2022-11-13T07:14:58.592Z,3.30
2022-11-13T07:16:19.277Z,3.30
2022-11-13T07:17:40.093Z,3.23
2022-11-13T07:19:00.894Z,3.34
2022-11-13T07:20:21.728Z,3.08
2022-11-13T07:21:42.475Z,2.96
2022-11-13T07:23:04.858Z,2.99
2022-11-13T07:24:25.814Z,3.11
2022-11-13T07:25:46.614Z,3.06
2022-11-13T07:27:07.490Z,3.00
2022-11-13T07:28:28.444Z,2.99
2022-11-13T07:29:49.304Z,3.04
2022-11-13T07:31:12.265Z,3.24
2022-11-13T07:32:36.584Z,3.16
2022-11-13T07:33:57.358Z,3.26
2022-11-13T07:35:18.409Z,3.25
2022-11-13T07:36:39.213Z,3.38
2022-11-13T07:37:59.904Z,3.48
2022-11-13T07:39:20.642Z,3.55
2022-11-13T07:40:41.400Z,3.65
2022-11-13T07:42:01.988Z,3.72
2022-11-13T07:43:22.528Z,3.77
2022-11-13T07:44:58.620Z,3.58
2022-11-13T07:46:19.847Z,3.58
2022-11-13T07:47:40.498Z,3.39
2022-11-13T07:49:01.173Z,3.39
2022-11-13T07:50:22.153Z,3.20
2022-11-13T07:51:42.757Z,3.31
2022-11-13T07:53:06.394Z,2.96
2022-11-13T07:54:27.442Z,2.99
2022-11-13T07:55:48.450Z,3.03
2022-11-13T07:57:09.399Z,2.97
2022-11-13T07:58:31.175Z,3.19
2022-11-13T07:59:52.414Z,3.33
2022-11-13T08:01:13.078Z,3.18
2022-11-13T08:02:33.797Z,3.02
2022-11-13T08:03:54.354Z,2.88
2022-11-13T08:05:15.965Z,3.03
2022-11-13T08:06:38.092Z,3.08
2022-11-13T08:07:58.708Z,3.09
2022-11-13T08:09:19.540Z,3.14
2022-11-13T08:10:40.976Z,3.28
2022-11-13T08:12:01.867Z,3.51
2022-11-13T08:13:23.046Z,3.59
2022-11-13T08:14:43.763Z,3.61
2022-11-13T08:16:05.749Z,3.72
2022-11-13T08:17:26.360Z,3.70
2022-11-13T08:18:47.057Z,3.75
2022-11-13T08:20:08.960Z,3.87
2022-11-13T08:21:29.932Z,3.90
2022-11-13T08:22:51.449Z,3.83
2022-11-13T08:24:12.266Z,4.05
2022-11-13T08:25:33.670Z,4.31
2022-11-13T08:26:54.677Z,4.68
2022-11-13T08:28:15.457Z,5.24
2022-11-13T08:29:37.231Z,5.52
2022-11-13T08:30:57.762Z,5.00
2022-11-13T08:32:19.681Z,4.81
2022-11-13T08:33:41.884Z,4.78
2022-11-13T08:35:02.934Z,4.77
2022-11-13T08:36:23.682Z,4.58
2022-11-13T08:37:44.351Z,4.70
2022-11-13T08:39:04.956Z,4.65
2022-11-13T08:40:25.609Z,4.55
2022-11-13T08:41:46.310Z,4.63
2022-11-13T08:43:07.161Z,4.56
2022-11-13T08:44:27.819Z,4.58
2022-11-13T08:45:48.569Z,4.49
2022-11-13T08:47:09.819Z,4.53
2022-11-13T08:48:31.081Z,4.60
2022-11-13T08:49:52.248Z,4.67
2022-11-13T08:51:12.957Z,4.63
2022-11-13T08:52:33.687Z,4.58
2022-11-13T08:53:54.617Z,4.45
2022-11-13T08:55:15.274Z,4.60
2022-11-13T08:56:35.926Z,4.89
2022-11-13T08:58:01.298Z,4.79
2022-11-13T08:59:23.567Z,4.58
2022-11-13T09:00:44.480Z,4.52
2022-11-13T09:02:05.679Z,4.70
2022-11-13T09:03:26.468Z,4.40
2022-11-13T09:04:47.249Z,4.41
2022-11-13T09:06:09.211Z,4.57
2022-11-13T09:07:30.224Z,4.54
2022-11-13T09:08:50.913Z,4.85
2022-11-13T09:10:11.648Z,5.12
2022-11-13T09:11:33.152Z,4.93
2022-11-13T09:13:01.937Z,4.89
2022-11-13T09:14:25.049Z,4.68
2022-11-13T09:15:45.641Z,4.95
2022-11-13T09:17:06.268Z,5.11
2022-11-13T09:18:27.914Z,5.38
2022-11-13T09:19:49.060Z,5.53
2022-11-13T09:21:11.005Z,5.53
2022-11-13T09:22:31.822Z,5.61
2022-11-13T09:23:52.522Z,5.99
2022-11-13T09:25:13.063Z,6.05
2022-11-13T09:26:35.751Z,5.80
2022-11-13T09:27:57.650Z,5.33
2022-11-13T09:29:18.488Z,5.06
2022-11-13T09:30:40.124Z,5.46
2022-11-13T09:32:00.753Z,5.70
2022-11-13T09:33:21.460Z,6.25
2022-11-13T09:34:42.188Z,6.41
2022-11-13T09:36:03.167Z,6.61
2022-11-13T09:37:23.757Z,6.69
2022-11-13T09:38:44.416Z,6.74
2022-11-13T09:40:05.832Z,6.72
2022-11-13T09:41:31.472Z,6.69
2022-11-13T09:42:52.330Z,6.51
2022-11-13T09:44:19.059Z,6.26
2022-11-13T09:45:41.501Z,6.47
2022-11-13T09:47:39.599Z,6.74
2022-11-13T09:49:06.695Z,6.23
2022-11-13T09:50:30.910Z,6.57
2022-11-13T09:51:54.212Z,6.87
2022-11-13T09:53:15.828Z,6.87
2022-11-13T09:54:37.680Z,7.24
2022-11-13T09:56:08.569Z,6.98
2022-11-13T09:57:38.093Z,7.81
2022-11-13T09:59:39.698Z,7.43
2022-11-13T10:01:01.301Z,7.21
2022-11-13T10:02:30.622Z,7.46
2022-11-13T10:04:01.864Z,7.33
2022-11-13T10:05:40.511Z,7.41
2022-11-13T10:07:33.292Z,7.73
2022-11-13T10:08:58.337Z,8.15
2022-11-13T10:10:46.554Z,7.66
2022-11-13T10:12:10.434Z,7.86
2022-11-13T10:13:41.064Z,7.68
2022-11-13T10:15:04.476Z,7.46
2022-11-13T10:16:43.738Z,7.04
2022-11-13T10:18:13.968Z,7.49
2022-11-13T10:19:42.896Z,7.91
2022-11-13T10:21:25.164Z,8.11
2022-11-13T10:23:04.447Z,7.97
2022-11-13T10:24:28.700Z,7.87
2022-11-13T10:25:52.472Z,8.08
2022-11-13T10:27:14.996Z,8.31
2022-11-13T10:28:50.210Z,8.36
2022-11-13T10:30:19.394Z,8.16
2022-11-13T10:31:45.626Z,8.18
2022-11-13T10:33:09.475Z,8.34
2022-11-13T10:34:29.946Z,8.43
2022-11-13T10:36:15.013Z,8.57
2022-11-13T10:37:38.537Z,8.57
2022-11-13T10:39:07.405Z,8.72
2022-11-13T10:40:34.584Z,8.52
2022-11-13T10:41:55.802Z,8.36
2022-11-13T10:43:20.638Z,8.26
2022-11-13T10:44:53.367Z,8.63
2022-11-13T10:46:24.301Z,8.44
2022-11-13T10:48:07.460Z,8.48
2022-11-13T10:49:31.614Z,8.55
2022-11-13T10:51:01.017Z,8.65
2022-11-13T10:52:30.375Z,8.84
2022-11-13T10:53:52.152Z,9.24
2022-11-13T10:55:37.606Z,8.51
2022-11-13T10:57:14.357Z,8.63
2022-11-13T10:58:35.355Z,8.73
2022-11-13T10:59:56.736Z,8.87
2022-11-13T11:01:24.317Z,8.98
2022-11-13T11:02:49.046Z,9.21
2022-11-13T11:04:27.872Z,9.52
2022-11-13T11:05:54.323Z,9.53
2022-11-13T11:07:23.402Z,9.11
2022-11-13T11:08:44.622Z,8.87
2022-11-13T11:10:20.030Z,8.75
2022-11-13T11:12:10.176Z,8.74
2022-11-13T11:13:30.706Z,8.60
2022-11-13T11:14:57.118Z,8.48
2022-11-13T11:16:23.753Z,8.82
2022-11-13T11:17:49.449Z,9.15
2022-11-13T11:19:15.237Z,9.33
2022-11-13T11:20:52.205Z,9.46
2022-11-13T11:22:17.104Z,9.57
2022-11-13T11:23:49.577Z,9.84
2022-11-13T11:25:19.586Z,9.47
2022-11-13T11:26:50.345Z,9.71
2022-11-13T11:28:24.154Z,9.74
2022-11-13T11:29:44.724Z,9.57
2022-11-13T11:31:17.839Z,9.18
2022-11-13T11:32:51.591Z,9.05
2022-11-13T11:34:12.687Z,9.44
2022-11-13T11:35:45.246Z,9.42
2022-11-13T11:37:23.237Z,9.39
2022-11-13T11:39:25.347Z,9.83
2022-11-13T11:40:52.567Z,9.76
2022-11-13T11:42:36.685Z,9.78
2022-11-13T11:44:18.241Z,9.75
2022-11-13T11:45:42.860Z,9.91
2022-11-13T11:47:03.876Z,9.86
2022-11-13T11:48:28.483Z,9.80
2022-11-13T11:49:49.392Z,9.74
2022-11-13T11:51:33.685Z,10.01
2022-11-13T11:53:16.507Z,9.71
2022-11-13T11:54:43.603Z,9.85
2022-11-13T11:56:19.653Z,9.94
2022-11-13T11:57:49.942Z,9.96
2022-11-13T11:59:55.636Z,10.15
2022-11-13T12:01:46.239Z,10.09
2022-11-13T12:03:42.135Z,9.94
2022-11-13T12:05:32.908Z,9.91
2022-11-13T12:07:06.517Z,10.08
2022-11-13T12:08:36.311Z,10.11
2022-11-13T12:10:18.671Z,10.28
2022-11-13T12:12:17.848Z,10.25
2022-11-13T12:13:56.882Z,10.49
2022-11-13T12:15:51.823Z,10.47
2022-11-13T12:17:45.288Z,10.27
2022-11-13T12:19:10.295Z,10.17
2022-11-13T12:20:44.691Z,10.38
2022-11-13T12:22:30.869Z,10.66
2022-11-13T12:24:19.079Z,10.61
2022-11-13T12:25:47.007Z,10.53
2022-11-13T12:27:16.351Z,10.66
2022-11-13T12:28:50.984Z,10.79
2022-11-13T12:30:17.073Z,10.61
2022-11-13T12:32:02.635Z,10.70
2022-11-13T12:33:34.264Z,10.84
2022-11-13T12:35:07.600Z,10.88
2022-11-13T12:36:28.783Z,10.90
2022-11-13T12:38:01.932Z,10.82
2022-11-13T12:39:43.049Z,11.03
2022-11-13T12:41:33.223Z,11.34
2022-11-13T12:43:28.775Z,11.05
2022-11-13T12:45:08.143Z,11.07
2022-11-13T12:46:40.259Z,11.36
2022-11-13T12:48:18.669Z,11.26
2022-11-13T12:49:39.510Z,11.15
2022-11-13T12:51:08.378Z,11.04
2022-11-13T12:52:29.279Z,11.15
2022-11-13T12:53:52.813Z,11.10
2022-11-13T12:55:31.720Z,11.19
2022-11-13T12:56:52.715Z,11.26
2022-11-13T12:58:31.348Z,11.35
2022-11-13T12:59:59.059Z,11.35
2022-11-13T13:01:22.098Z,11.45
2022-11-13T13:03:04.804Z,11.46
2022-11-13T13:04:48.559Z,11.46
2022-11-13T13:06:34.315Z,11.23
2022-11-13T13:08:22.019Z,11.12
2022-11-13T13:10:07.294Z,11.39
2022-11-13T13:12:00.248Z,11.17
2022-11-13T13:13:58.168Z,11.09
2022-11-13T13:15:31.517Z,11.16
2022-11-13T13:16:52.343Z,11.25
2022-11-13T13:18:29.952Z,11.18
2022-11-13T13:20:01.780Z,11.25
2022-11-13T13:21:22.454Z,11.36
2022-11-13T13:22:43.234Z,11.35
2022-11-13T13:24:27.337Z,11.36
2022-11-13T13:25:47.628Z,11.37
2022-11-13T13:27:42.183Z,11.37
2022-11-13T13:29:18.179Z,11.37
2022-11-13T13:30:54.393Z,11.54
2022-11-13T13:32:39.332Z,11.52
2022-11-13T13:34:25.368Z,11.55
2022-11-13T13:36:02.147Z,11.51
2022-11-13T13:37:39.573Z,11.61
2022-11-13T13:39:21.397Z,11.65
2022-11-13T13:40:52.900Z,11.59
2022-11-13T13:42:39.815Z,11.56
2022-11-13T13:44:21.740Z,11.53
2022-11-13T13:46:00.935Z,11.41
2022-11-13T13:47:42.645Z,11.48
2022-11-13T13:49:09.298Z,11.31
2022-11-13T13:50:33.917Z,11.41
2022-11-13T13:51:57.293Z,11.26
2022-11-13T13:53:31.720Z,11.38
2022-11-13T13:54:52.625Z,11.41
2022-11-13T13:56:14.225Z,11.41
2022-11-13T13:57:40.794Z,11.41
2022-11-13T13:59:02.244Z,11.38
2022-11-13T14:00:23.594Z,11.41
2022-11-13T14:01:55.845Z,11.44
2022-11-13T14:03:20.728Z,11.57
2022-11-13T14:04:47.132Z,11.54
2022-11-13T14:06:19.732Z,11.64
2022-11-13T14:07:46.087Z,11.66
2022-11-13T14:09:16.684Z,11.68
2022-11-13T14:10:37.466Z,11.73
2022-11-13T14:12:09.979Z,11.78
2022-11-13T14:13:31.057Z,11.70
2022-11-13T14:14:51.892Z,11.74
2022-11-13T14:16:13.985Z,11.62
2022-11-13T14:17:35.484Z,11.61
2022-11-13T14:19:04.618Z,11.43
2022-11-13T14:20:25.399Z,11.44
2022-11-13T14:21:49.595Z,11.40
2022-11-13T14:23:13.818Z,11.40
2022-11-13T14:24:48.318Z,11.43
2022-11-13T14:26:11.848Z,11.29
2022-11-13T14:27:32.505Z,11.34
2022-11-13T14:28:58.601Z,11.37
2022-11-13T14:30:28.017Z,11.38
2022-11-13T14:31:48.712Z,11.35
2022-11-13T14:33:15.897Z,11.33
2022-11-13T14:34:38.660Z,11.29
2022-11-13T14:36:03.808Z,11.35
2022-11-13T14:37:32.237Z,11.25
2022-11-13T14:38:53.947Z,11.35
2022-11-13T14:40:20.883Z,11.33
2022-11-13T14:41:50.152Z,11.27
2022-11-13T14:43:20.343Z,11.27
2022-11-13T14:44:41.203Z,11.20
2022-11-13T14:46:04.964Z,11.26
2022-11-13T14:47:37.236Z,11.31
2022-11-13T14:48:58.358Z,11.24
2022-11-13T14:50:25.890Z,11.26
2022-11-13T14:51:55.776Z,11.32
2022-11-13T14:53:28.251Z,11.26
2022-11-13T14:55:15.231Z,11.24
2022-11-13T14:56:36.910Z,11.16
2022-11-13T14:57:57.864Z,11.17
2022-11-13T14:59:26.822Z,11.18
2022-11-13T15:00:50.596Z,11.08
2022-11-13T15:02:12.642Z,11.15
2022-11-13T15:03:34.083Z,11.21
2022-11-13T15:04:55.128Z,11.14
2022-11-13T15:06:21.307Z,11.07
2022-11-13T15:07:45.629Z,10.97
2022-11-13T15:09:12.761Z,11.10
2022-11-13T15:10:33.448Z,11.10
2022-11-13T15:11:54.142Z,11.09
2022-11-13T15:13:17.292Z,11.02
2022-11-13T15:14:41.227Z,11.01
2022-11-13T15:16:02.007Z,10.97
2022-11-13T15:17:23.393Z,10.89
2022-11-13T15:18:52.973Z,10.78
2022-11-13T15:20:16.272Z,10.76
2022-11-13T15:21:36.913Z,10.69
2022-11-13T15:22:59.646Z,10.63
2022-11-13T15:24:20.563Z,10.60
2022-11-13T15:25:42.374Z,10.55
2022-11-13T15:27:03.497Z,10.54
2022-11-13T15:28:24.010Z,10.50
2022-11-13T15:29:44.766Z,10.39
2022-11-13T15:31:23.962Z,10.32
2022-11-13T15:32:45.317Z,10.27
2022-11-13T15:34:06.089Z,10.22
2022-11-13T15:35:26.689Z,10.06
2022-11-13T15:36:47.369Z,10.03
2022-11-13T15:38:08.089Z,10.01
2022-11-13T15:39:29.116Z,9.89
2022-11-13T15:40:50.186Z,9.83
2022-11-13T15:42:19.858Z,9.81
2022-11-13T15:43:44.397Z,9.69
2022-11-13T15:45:08.764Z,9.70
2022-11-13T15:46:29.505Z,9.55
2022-11-13T15:47:50.489Z,9.49
2022-11-13T15:49:11.144Z,9.49
2022-11-13T15:50:32.351Z,9.35
2022-11-13T15:51:53.189Z,9.26
2022-11-13T15:53:14.162Z,9.18
2022-11-13T15:54:38.587Z,9.17
2022-11-13T15:56:02.848Z,9.18
2022-11-13T15:57:29.597Z,8.79
2022-11-13T15:58:50.285Z,8.74
2022-11-13T16:00:25.064Z,8.60
2022-11-13T16:01:47.089Z,8.55
2022-11-13T16:03:11.916Z,8.68
2022-11-13T16:04:50.831Z,8.76
2022-11-13T16:06:21.203Z,8.65
2022-11-13T16:07:42.813Z,8.53
2022-11-13T16:09:04.526Z,8.57
2022-11-13T16:10:25.557Z,8.55
2022-11-13T16:11:46.595Z,8.50
2022-11-13T16:13:07.183Z,8.46
2022-11-13T16:14:27.906Z,8.48
2022-11-13T16:15:49.259Z,8.26
2022-11-13T16:17:16.574Z,8.17
2022-11-13T16:18:39.866Z,8.19
2022-11-13T16:20:01.511Z,8.17
2022-11-13T16:21:22.766Z,8.19
2022-11-13T16:22:44.286Z,8.19
2022-11-13T16:24:05.486Z,8.03
2022-11-13T16:25:26.665Z,8.02
2022-11-13T16:26:51.026Z,7.98
2022-11-13T16:28:16.792Z,8.00
2022-11-13T16:29:37.824Z,8.03
2022-11-13T16:30:58.421Z,7.87
2022-11-13T16:32:19.123Z,7.85
2022-11-13T16:33:39.860Z,7.80
2022-11-13T16:35:00.617Z,7.80
2022-11-13T16:36:22.513Z,7.70
2022-11-13T16:37:43.016Z,7.66
2022-11-13T16:39:04.768Z,7.71
2022-11-13T16:40:26.491Z,7.69
2022-11-13T16:41:47.280Z,7.67
2022-11-13T16:43:08.362Z,7.65
2022-11-13T16:44:29.431Z,7.55
2022-11-13T16:45:51.775Z,7.56
2022-11-13T16:47:24.540Z,7.39
2022-11-13T16:48:45.437Z,7.37
2022-11-13T16:50:24.709Z,7.32
2022-11-13T16:51:46.854Z,7.32
2022-11-13T16:53:08.655Z,7.36
2022-11-13T16:54:29.868Z,7.31
2022-11-13T16:55:50.653Z,7.25
2022-11-13T16:57:13.736Z,7.18
2022-11-13T16:58:34.260Z,7.08
2022-11-13T16:59:55.820Z,6.84
2022-11-13T17:01:19.449Z,6.82
2022-11-13T17:02:40.454Z,6.94
2022-11-13T17:04:01.430Z,6.85
2022-11-13T17:05:23.483Z,6.90
2022-11-13T17:06:47.215Z,6.89
2022-11-13T17:08:12.253Z,6.91
2022-11-13T17:09:33.282Z,6.79
2022-11-13T17:10:58.122Z,6.70
2022-11-13T17:12:21.892Z,6.68
2022-11-13T17:13:44.089Z,6.61
2022-11-13T17:15:05.825Z,6.56
2022-11-13T17:16:28.979Z,6.47
2022-11-13T17:17:49.564Z,6.52
2022-11-13T17:19:13.425Z,6.53
2022-11-13T17:20:36.651Z,6.37
2022-11-13T17:21:57.528Z,6.36
2022-11-13T17:23:18.387Z,6.43
2022-11-13T17:24:39.934Z,6.25
2022-11-13T17:26:01.905Z,6.25
2022-11-13T17:27:22.803Z,6.32
2022-11-13T17:28:43.389Z,6.41
2022-11-13T17:30:04.332Z,6.46
2022-11-13T17:31:26.476Z,6.52
2022-11-13T17:32:47.557Z,6.54
2022-11-13T17:34:08.404Z,6.52
2022-11-13T17:35:29.080Z,6.50
2022-11-13T17:36:54.666Z,6.48
2022-11-13T17:38:15.704Z,6.36
2022-11-13T17:39:36.520Z,6.36
2022-11-13T17:41:08.754Z,6.32
2022-11-13T17:42:29.627Z,6.40
2022-11-13T17:43:50.191Z,6.32
2022-11-13T17:45:11.845Z,6.26
2022-11-13T17:46:32.533Z,6.00
2022-11-13T17:47:53.330Z,5.91
2022-11-13T17:49:16.195Z,5.86
2022-11-13T17:50:37.169Z,5.89
2022-11-13T17:51:58.088Z,5.85
2022-11-13T17:53:18.895Z,5.73
2022-11-13T17:54:39.836Z,5.72
2022-11-13T17:56:03.121Z,5.76
2022-11-13T17:57:26.863Z,5.75
2022-11-13T17:58:48.011Z,5.81
2022-11-13T18:00:09.198Z,5.69
2022-11-13T18:01:31.749Z,5.60
2022-11-13T18:02:52.310Z,5.59
2022-11-13T18:04:13.049Z,5.66
2022-11-13T18:05:40.502Z,5.69
2022-11-13T18:07:01.771Z,5.74
2022-11-13T18:08:22.666Z,5.72
2022-11-13T18:09:43.472Z,5.48
2022-11-13T18:11:09.255Z,5.28
2022-11-13T18:12:30.099Z,5.27
2022-11-13T18:13:51.488Z,5.37
2022-11-13T18:15:12.423Z,5.39
2022-11-13T18:16:34.524Z,5.46
2022-11-13T18:17:55.185Z,5.47
2022-11-13T18:19:15.860Z,5.43
2022-11-13T18:20:39.744Z,5.43
2022-11-13T18:22:00.373Z,5.27
2022-11-13T18:23:21.325Z,5.22
2022-11-13T18:24:42.249Z,5.04
2022-11-13T18:26:10.797Z,5.16
2022-11-13T18:27:31.609Z,5.26
2022-11-13T18:28:52.511Z,5.24
2022-11-13T18:30:13.107Z,5.17
2022-11-13T18:31:33.808Z,5.06
2022-11-13T18:32:54.510Z,4.95
2022-11-13T18:34:16.619Z,4.94
2022-11-13T18:35:37.519Z,5.00
2022-11-13T18:36:58.882Z,4.89
2022-11-13T18:38:19.779Z,4.94
2022-11-13T18:39:40.769Z,4.96
2022-11-13T18:41:05.482Z,5.00